Sand Springs, Montana
Current Conditions -  °F | °C
As of 12:35 PM on Saturday 25 Oct 2014 (Local Time) from KMVH Reporting Station
Clear Clear  
Wind Chill: 16°   Ceiling: Unl
Heat Index: 16°   Visibility: 10mi
Dew Point:   Wind: 5mph
Humidity: 36%   Direction: 70°ENE
Pressure: 29.94"   Gusts: NA
Location:  47.1°N, 107.49°W
Report Text: KMVH 251835Z AUTO 07004KT 10SM CLR 16/01 A2994 RMK A01
Loading
Personal Weather Stations






























Interactive Weather Map
Tropical Storm Tracking
New forecast layout! Learn more

10-Day Weather Forecast

Advertisements
Track Severe Weather on mobile